Time;durP1;ratioP1;P1;durP2;ratioP2;P2;SDS_P1;SDS_P2;PMS_P1;PMS_P2;Temp;Humidity;BMP_temperature;BMP_pressure;BME280_temperature;BME280_humidity;BME280_pressure;Samples;Min_cycle;Max_cycle;Signal;HPM_P1;HPM_P2
2023/04/02 00:01:42;;;;;;;4.50;3.00;;;7.50;99.90;;;;;;5092668;28;20205;-71
2023/04/02 00:04:21;;;;;;;4.33;2.90;;;7.50;99.90;;;;;;5092815;28;20337;-72
2023/04/02 00:06:53;;;;;;;3.57;2.90;;;7.50;99.90;;;;;;5092741;28;20283;-71
2023/04/02 00:09:28;;;;;;;4.43;2.90;;;7.50;99.90;;;;;;5092996;28;20203;-72
2023/04/02 00:11:55;;;;;;;3.73;3.03;;;7.60;99.90;;;;;;5092537;28;20630;-72
2023/04/02 00:14:25;;;;;;;5.30;3.10;;;7.60;99.90;;;;;;5092899;28;20200;-71
2023/04/02 00:16:54;;;;;;;4.63;2.77;;;7.60;99.90;;;;;;5092828;28;20243;-71
2023/04/02 00:19:28;;;;;;;4.00;2.90;;;7.60;99.90;;;;;;5092737;28;20193;-71
2023/04/02 00:21:57;;;;;;;4.53;2.80;;;7.60;99.90;;;;;;5093434;28;20228;-71
2023/04/02 00:24:24;;;;;;;4.07;3.07;;;7.60;99.90;;;;;;5096485;28;20617;-71
2023/04/02 00:26:52;;;;;;;4.60;2.80;;;7.60;99.90;;;;;;5096813;28;20251;-72
2023/04/02 00:29:19;;;;;;;3.10;2.80;;;7.60;99.90;;;;;;5096692;28;20226;-72
2023/04/02 00:31:48;;;;;;;3.73;2.90;;;7.60;99.90;;;;;;5096565;28;20237;-71
2023/04/02 00:34:19;;;;;;;3.47;2.73;;;7.60;99.90;;;;;;5096341;28;20309;-71
2023/04/02 00:36:47;;;;;;;3.40;3.10;;;7.60;99.90;;;;;;5096353;28;20290;-71
2023/04/02 00:39:19;;;;;;;4.53;2.97;;;7.60;99.90;;;;;;5096222;28;20620;-71
2023/04/02 00:41:46;;;;;;;5.27;3.40;;;7.60;99.90;;;;;;5096466;28;20193;-71
2023/04/02 00:44:14;;;;;;;4.80;3.30;;;7.60;99.90;;;;;;5096181;28;20272;-71
2023/04/02 00:46:48;;;;;;;4.20;3.53;;;7.60;99.90;;;;;;5095996;28;20652;-72
2023/04/02 00:49:21;;;;;;;4.00;3.20;;;7.70;99.90;;;;;;5096147;28;20242;-72
2023/04/02 00:51:52;;;;;;;3.50;2.73;;;7.60;99.90;;;;;;5096273;28;20238;-72
2023/04/02 00:54:24;;;;;;;7.43;3.63;;;7.60;99.90;;;;;;5096309;28;20200;-72
2023/04/02 00:56:53;;;;;;;3.63;3.10;;;7.60;99.90;;;;;;5096070;28;20200;-72
2023/04/02 00:59:26;;;;;;;3.87;3.27;;;7.50;99.90;;;;;;5095953;28;20579;-72
2023/04/02 01:02:00;;;;;;;5.37;3.77;;;7.40;99.90;;;;;;5095800;28;20205;-72
2023/04/02 01:04:32;;;;;;;6.07;3.43;;;7.30;99.90;;;;;;5095970;28;20243;-73
2023/04/02 01:07:03;;;;;;;4.60;3.77;;;7.30;99.90;;;;;;5096100;28;20249;-73
2023/04/02 01:09:55;;;;;;;6.70;4.53;;;7.20;99.90;;;;;;5095778;28;20201;-73
2023/04/02 01:12:34;;;;;;;4.97;4.47;;;7.20;99.90;;;;;;5095700;28;20268;-73
2023/04/02 01:15:10;;;;;;;6.47;4.50;;;7.20;99.90;;;;;;5095817;28;20242;-74
2023/04/02 01:17:48;;;;;;;5.77;4.57;;;7.10;99.90;;;;;;5095534;28;20258;-73
2023/04/02 01:20:38;;;;;;;5.43;4.60;;;7.10;99.90;;;;;;5095590;28;20219;-73
2023/04/02 01:23:09;;;;;;;7.87;4.90;;;7.10;99.90;;;;;;5095489;28;20232;-74
2023/04/02 01:25:43;;;;;;;6.77;4.83;;;7.20;99.90;;;;;;5095435;28;20703;-73
2023/04/02 01:28:18;;;;;;;8.27;5.30;;;7.10;99.90;;;;;;5095618;28;20602;-73
2023/04/02 01:30:51;;;;;;;5.63;4.80;;;7.10;99.90;;;;;;5095376;28;20204;-73
2023/04/02 01:33:20;;;;;;;5.30;4.80;;;7.20;99.90;;;;;;5094428;28;20722;-73
2023/04/02 01:35:55;;;;;;;6.53;4.87;;;7.10;99.90;;;;;;5095326;28;20210;-73
2023/04/02 01:38:27;;;;;;;7.73;5.20;;;7.10;99.90;;;;;;5095260;28;20199;-74
2023/04/02 01:41:03;;;;;;;5.93;4.50;;;7.20;99.90;;;;;;5095020;28;20201;-73
2023/04/02 01:43:36;;;;;;;7.07;4.50;;;7.10;99.90;;;;;;5095186;28;20200;-72
2023/04/02 01:46:23;;;;;;;4.90;4.40;;;7.10;99.90;;;;;;5095297;28;20227;-73
2023/04/02 01:48:49;;;;;;;5.93;4.60;;;7.10;99.90;;;;;;5094901;28;20204;-72
2023/04/02 01:51:26;;;;;;;5.20;4.63;;;7.10;99.90;;;;;;5095057;28;20670;-72
2023/04/02 01:53:54;;;;;;;5.07;4.30;;;7.10;99.90;;;;;;5094778;28;20201;-72
2023/04/02 01:56:21;;;;;;;5.80;4.73;;;7.10;99.90;;;;;;5094992;28;20204;-72
2023/04/02 01:58:49;;;;;;;5.67;4.50;;;7.00;99.90;;;;;;5094902;28;20234;-73
2023/04/02 02:01:19;;;;;;;5.80;4.63;;;7.00;99.90;;;;;;5095022;28;20246;-74
2023/04/02 02:03:46;;;;;;;6.43;5.07;;;7.00;99.90;;;;;;5094660;28;20243;-74
2023/04/02 02:06:14;;;;;;;5.30;4.67;;;7.00;99.90;;;;;;5094658;28;20207;-74
2023/04/02 02:08:47;;;;;;;5.40;4.90;;;6.90;99.90;;;;;;5094514;28;20196;-74
2023/04/02 02:11:16;;;;;;;5.90;4.47;;;6.90;99.90;;;;;;5094621;28;20291;-75
2023/04/02 02:13:46;;;;;;;5.23;4.73;;;6.90;99.90;;;;;;5094570;28;20233;-75
2023/04/02 02:16:17;;;;;;;6.20;4.93;;;6.90;99.90;;;;;;5094245;28;20200;-75
2023/04/02 02:18:48;;;;;;;5.50;4.53;;;6.90;99.90;;;;;;5094168;28;20605;-75
2023/04/02 02:21:23;;;;;;;6.50;5.03;;;6.90;99.90;;;;;;5094306;28;20284;-75
2023/04/02 02:23:50;;;;;;;7.07;4.40;;;6.90;99.90;;;;;;5094249;28;20262;-74
2023/04/02 02:26:17;;;;;;;4.73;4.33;;;7.00;99.90;;;;;;5094336;28;20228;-75
2023/04/02 02:28:49;;;;;;;6.50;4.77;;;6.90;99.90;;;;;;5094060;28;20263;-74
2023/04/02 02:31:21;;;;;;;5.47;4.60;;;6.90;99.90;;;;;;5094296;28;20200;-74
2023/04/02 02:33:51;;;;;;;5.80;5.20;;;6.90;99.90;;;;;;5093893;28;20227;-74
2023/04/02 02:36:22;;;;;;;5.40;4.73;;;6.90;99.90;;;;;;5094208;28;20238;-74
2023/04/02 02:38:55;;;;;;;5.53;4.93;;;6.90;99.90;;;;;;5094105;28;20193;-75
2023/04/02 02:41:28;;;;;;;6.67;5.10;;;7.00;99.90;;;;;;5093958;28;20246;-74
2023/04/02 02:44:01;;;;;;;8.10;5.53;;;7.00;99.90;;;;;;5093832;28;20238;-73
2023/04/02 02:46:31;;;;;;;7.10;5.30;;;7.00;99.90;;;;;;5094073;28;20200;-74
2023/04/02 02:48:59;;;;;;;7.80;4.97;;;7.00;99.90;;;;;;5093964;28;20663;-74
2023/04/02 02:51:30;;;;;;;6.27;4.70;;;7.00;99.90;;;;;;5093843;28;20193;-75
2023/04/02 02:54:02;;;;;;;5.80;4.90;;;7.00;99.90;;;;;;5093784;28;20192;-74
2023/04/02 02:56:30;;;;;;;5.30;4.70;;;6.90;99.90;;;;;;5093652;28;20675;-75
2023/04/02 02:58:59;;;;;;;4.90;4.40;;;6.90;99.90;;;;;;5093866;28;20231;-73
2023/04/02 03:01:30;;;;;;;6.73;4.50;;;6.90;99.90;;;;;;5093770;28;20203;-74
2023/04/02 03:03:57;;;;;;;4.83;4.33;;;6.90;99.90;;;;;;5093663;28;20208;-75
2023/04/02 03:06:24;;;;;;;5.07;4.30;;;7.00;99.90;;;;;;5093077;28;20888;-74
2023/04/02 03:08:57;;;;;;;5.33;4.83;;;7.00;99.90;;;;;;5093366;28;20196;-74
2023/04/02 03:11:29;;;;;;;4.67;4.23;;;7.00;99.90;;;;;;5093678;28;20251;-75
2023/04/02 03:14:03;;;;;;;4.10;3.70;;;6.90;99.90;;;;;;5093076;28;20196;-75
2023/04/02 03:16:37;;;;;;;4.57;3.97;;;7.00;99.90;;;;;;5093532;28;20196;-76
2023/04/02 03:19:10;;;;;;;5.07;3.50;;;7.00;99.90;;;;;;5093408;28;20200;-76
2023/04/02 03:21:44;;;;;;;4.47;3.57;;;7.00;99.90;;;;;;5093130;28;20245;-75
2023/04/02 03:24:17;;;;;;;3.80;3.37;;;7.00;99.90;;;;;;5093375;28;20196;-76
2023/04/02 03:26:49;;;;;;;3.80;3.20;;;6.90;99.90;;;;;;5093192;28;20660;-76
2023/04/02 03:29:18;;;;;;;4.87;3.70;;;7.00;99.90;;;;;;5093343;28;20196;-75
2023/04/02 03:31:50;;;;;;;5.00;3.40;;;6.90;99.90;;;;;;5093158;28;20239;-76
2023/04/02 03:34:24;;;;;;;4.17;3.77;;;6.90;99.90;;;;;;5093225;28;20241;-76
2023/04/02 03:36:56;;;;;;;4.73;3.90;;;6.90;99.90;;;;;;5093285;28;20229;-76
2023/04/02 03:39:29;;;;;;;4.80;3.97;;;6.90;99.90;;;;;;5093583;28;20212;-76
2023/04/02 03:42:02;;;;;;;4.10;3.70;;;6.90;99.90;;;;;;5092998;28;20204;-76
2023/04/02 03:44:32;;;;;;;5.30;4.30;;;6.90;99.90;;;;;;5093008;28;20231;-77
2023/04/02 03:47:04;;;;;;;5.70;4.97;;;6.90;99.90;;;;;;5093291;28;20239;-76
2023/04/02 03:49:36;;;;;;;4.90;4.40;;;6.90;99.90;;;;;;5093143;28;20351;-75
2023/04/02 03:52:05;;;;;;;4.90;4.10;;;6.90;99.90;;;;;;5092998;28;20251;-75
2023/04/02 03:54:32;;;;;;;4.73;3.90;;;6.90;99.90;;;;;;5092886;28;20196;-74
2023/04/02 03:57:00;;;;;;;5.67;4.50;;;6.90;99.90;;;;;;5095151;28;20250;-74
2023/04/02 03:59:35;;;;;;;5.07;4.40;;;6.90;99.90;;;;;;5099441;28;20716;-75
2023/04/02 04:02:15;;;;;;;6.23;5.23;;;6.90;99.90;;;;;;5099964;28;20203;-75
2023/04/02 04:04:44;;;;;;;5.70;5.20;;;6.90;99.90;;;;;;5099482;28;20251;-74
2023/04/02 04:07:18;;;;;;;5.87;5.20;;;6.90;99.90;;;;;;5099467;28;20224;-76
2023/04/02 04:09:46;;;;;;;5.57;5.00;;;6.90;99.90;;;;;;5099682;28;20238;-75
2023/04/02 04:12:21;;;;;;;5.50;4.90;;;6.90;99.90;;;;;;5099496;28;20234;-76
2023/04/02 04:14:53;;;;;;;6.10;5.50;;;6.90;99.90;;;;;;5100222;28;20249;-75
2023/04/02 04:17:28;;;;;;;6.57;5.33;;;6.90;99.90;;;;;;5100839;28;20234;-75
2023/04/02 04:20:01;;;;;;;5.63;4.90;;;6.90;99.90;;;;;;5100527;28;20199;-76
2023/04/02 04:22:31;;;;;;;6.97;5.80;;;6.90;99.90;;;;;;5100986;28;20197;-76
2023/04/02 04:24:58;;;;;;;5.17;4.50;;;6.90;99.90;;;;;;5100974;28;20216;-75
2023/04/02 04:27:33;;;;;;;5.50;4.80;;;6.90;99.90;;;;;;5099956;28;20254;-76
2023/04/02 04:30:04;;;;;;;5.10;4.60;;;6.90;99.90;;;;;;5099340;28;20199;-76
2023/04/02 04:32:37;;;;;;;6.07;5.43;;;6.90;99.90;;;;;;5099589;28;20216;-76
2023/04/02 04:35:14;;;;;;;5.83;5.23;;;6.90;99.90;;;;;;5099042;28;20809;-76
2023/04/02 04:37:48;;;;;;;6.23;5.47;;;6.90;99.90;;;;;;5099308;28;20230;-76
2023/04/02 04:40:20;;;;;;;5.80;5.23;;;6.90;99.90;;;;;;5099138;28;20655;-75
2023/04/02 04:42:49;;;;;;;6.47;5.57;;;6.90;99.90;;;;;;5098858;28;20599;-76
2023/04/02 04:45:30;;;;;;;7.00;5.47;;;6.90;99.90;;;;;;5099242;28;20219;-75
2023/04/02 04:48:03;;;;;;;5.90;5.30;;;6.90;99.90;;;;;;5098956;28;20716;-75
2023/04/02 04:50:33;;;;;;;6.70;6.00;;;7.00;99.90;;;;;;5099387;28;20229;-76
2023/04/02 04:53:06;;;;;;;6.27;5.67;;;7.00;99.90;;;;;;5098701;28;20265;-75
2023/04/02 04:55:38;;;;;;;6.70;6.10;;;7.00;99.90;;;;;;5099593;28;20200;-75
2023/04/02 04:58:14;;;;;;;6.17;5.57;;;7.00;99.90;;;;;;5099182;28;20200;-76
2023/04/02 05:00:50;;;;;;;6.60;5.90;;;7.00;99.90;;;;;;5098829;28;20529;-75
2023/04/02 05:03:26;;;;;;;7.23;6.30;;;7.00;99.90;;;;;;5099273;28;20254;-75
2023/04/02 05:05:53;;;;;;;7.20;6.50;;;7.00;99.90;;;;;;5098770;28;20220;-74
2023/04/02 05:08:26;;;;;;;8.07;6.80;;;7.00;99.90;;;;;;5096858;28;20254;-75
2023/04/02 05:10:56;;;;;;;9.97;7.87;;;7.00;99.90;;;;;;5096128;28;20193;-75
2023/04/02 05:13:30;;;;;;;9.37;7.73;;;7.00;99.90;;;;;;5095776;28;20310;-75
2023/04/02 05:16:09;;;;;;;8.03;7.23;;;7.00;99.90;;;;;;5095697;28;20235;-75
2023/04/02 05:18:41;;;;;;;9.60;8.53;;;7.00;99.90;;;;;;5095776;28;20228;-75
2023/04/02 05:21:16;;;;;;;9.83;8.30;;;7.00;99.90;;;;;;5095618;28;20220;-75
2023/04/02 05:23:46;;;;;;;10.70;9.23;;;7.00;99.90;;;;;;5095621;28;20227;-75
2023/04/02 05:26:18;;;;;;;48.53;35.30;;;7.10;99.90;;;;;;5095236;28;20220;-74
2023/04/02 05:28:51;;;;;;;35.40;22.83;;;7.00;99.90;;;;;;5095720;28;20238;-74
2023/04/02 05:31:24;;;;;;;42.57;30.07;;;7.00;99.90;;;;;;5095516;28;20251;-75
2023/04/02 05:33:53;;;;;;;13.07;10.67;;;7.10;99.90;;;;;;5095294;28;20224;-74
2023/04/02 05:36:22;;;;;;;12.17;10.50;;;7.10;99.90;;;;;;5095275;28;20200;-75
2023/04/02 05:38:50;;;;;;;12.83;9.40;;;7.10;99.90;;;;;;5095084;28;20640;-74
2023/04/02 05:41:25;;;;;;;11.17;9.63;;;7.10;99.90;;;;;;5095112;28;20196;-74
2023/04/02 05:44:01;;;;;;;11.73;9.47;;;7.10;99.90;;;;;;5095277;28;20200;-74
2023/04/02 05:46:33;;;;;;;12.80;10.50;;;7.20;99.90;;;;;;5095189;28;20259;-74
2023/04/02 05:49:07;;;;;;;10.73;9.47;;;7.10;99.90;;;;;;5095151;28;20318;-75
2023/04/02 05:51:39;;;;;;;13.10;10.33;;;7.10;99.90;;;;;;5095175;28;20197;-74
2023/04/02 05:54:16;;;;;;;13.37;9.67;;;7.10;99.90;;;;;;5095002;28;20207;-74
2023/04/02 05:56:46;;;;;;;12.37;10.07;;;7.10;99.90;;;;;;5095070;28;20234;-75
2023/04/02 05:59:18;;;;;;;11.77;9.80;;;7.20;99.90;;;;;;5094889;28;20228;-75
2023/04/02 06:01:48;;;;;;;10.57;9.27;;;7.20;99.90;;;;;;5094654;28;20198;-74
2023/04/02 06:04:23;;;;;;;13.03;9.93;;;7.20;99.90;;;;;;5094897;28;20289;-74
2023/04/02 06:06:56;;;;;;;12.63;9.00;;;7.20;99.90;;;;;;5094683;28;20262;-74
2023/04/02 06:09:30;;;;;;;11.57;9.93;;;7.30;99.90;;;;;;5095033;28;20227;-74
2023/04/02 06:12:07;;;;;;;10.13;8.97;;;7.30;99.90;;;;;;5094731;28;20235;-74
2023/04/02 06:14:34;;;;;;;12.20;10.10;;;7.30;99.90;;;;;;5094447;28;20192;-75
2023/04/02 06:17:01;;;;;;;11.70;10.30;;;7.40;99.90;;;;;;5094625;28;20228;-75
2023/04/02 06:19:35;;;;;;;10.40;9.40;;;7.30;99.90;;;;;;5094189;28;20682;-75
2023/04/02 06:22:11;;;;;;;12.13;8.70;;;7.40;99.90;;;;;;5094499;28;20249;-75
2023/04/02 06:24:40;;;;;;;9.10;8.23;;;7.40;99.90;;;;;;5094276;28;20234;-74
2023/04/02 06:27:11;;;;;;;11.17;7.93;;;7.40;99.90;;;;;;5094396;28;20259;-75
2023/04/02 06:29:42;;;;;;;9.47;8.47;;;7.40;99.90;;;;;;5094096;28;20228;-74
2023/04/02 06:32:12;;;;;;;8.60;7.70;;;7.50;99.90;;;;;;5094346;28;20598;-75
2023/04/02 06:34:41;;;;;;;9.50;8.43;;;7.50;99.90;;;;;;5094170;28;20265;-75
2023/04/02 06:37:18;;;;;;;9.63;8.33;;;7.50;99.90;;;;;;5093711;28;20235;-74
2023/04/02 06:39:44;;;;;;;8.67;7.77;;;7.50;99.90;;;;;;5094261;28;20640;-75
2023/04/02 06:42:16;;;;;;;9.70;8.60;;;7.50;99.90;;;;;;5093949;28;20702;-74
2023/04/02 06:44:43;;;;;;;10.57;8.57;;;7.60;99.90;;;;;;5093998;28;20192;-74
2023/04/02 06:47:17;;;;;;;10.73;8.30;;;7.60;99.90;;;;;;5093738;28;20652;-74
2023/04/02 06:49:50;;;;;;;10.60;8.17;;;7.70;99.90;;;;;;5093758;28;20207;-74
2023/04/02 06:52:21;;;;;;;9.63;8.27;;;7.70;99.90;;;;;;5093921;28;20208;-74
2023/04/02 06:54:48;;;;;;;9.30;7.70;;;7.80;99.90;;;;;;5093986;28;20228;-74
2023/04/02 06:57:15;;;;;;;9.23;8.00;;;7.90;99.90;;;;;;5093762;28;20231;-74
2023/04/02 06:59:41;;;;;;;8.37;7.43;;;8.00;99.90;;;;;;5093708;28;20232;-74
2023/04/02 07:02:24;;;;;;;8.50;7.70;;;8.00;99.90;;;;;;5093718;28;20239;-74
2023/04/02 07:04:52;;;;;;;8.17;7.20;;;8.00;99.90;;;;;;5093678;28;20201;-74
2023/04/02 07:07:19;;;;;;;7.60;6.90;;;8.10;99.90;;;;;;5093454;28;20259;-74
2023/04/02 07:09:45;;;;;;;7.50;6.80;;;8.10;99.90;;;;;;5093607;28;20224;-74
2023/04/02 07:12:12;;;;;;;7.40;6.57;;;8.10;99.90;;;;;;5093579;28;20250;-73
2023/04/02 07:14:39;;;;;;;8.10;7.30;;;8.10;99.90;;;;;;5093056;28;20235;-74
2023/04/02 07:17:05;;;;;;;8.70;6.80;;;8.10;99.90;;;;;;5093347;28;20201;-74
2023/04/02 07:19:32;;;;;;;7.73;7.03;;;8.30;99.90;;;;;;5093175;28;20670;-74
2023/04/02 07:22:00;;;;;;;7.50;6.80;;;8.30;99.90;;;;;;5093374;28;20245;-74
2023/04/02 07:24:26;;;;;;;7.50;6.70;;;8.30;99.90;;;;;;5093179;28;20223;-74
2023/04/02 07:26:53;;;;;;;7.83;6.33;;;8.20;99.90;;;;;;5093136;28;20368;-74
2023/04/02 07:29:20;;;;;;;7.00;6.30;;;8.10;99.90;;;;;;5093045;28;20227;-73
2023/04/02 07:31:46;;;;;;;7.87;7.07;;;8.00;99.90;;;;;;5092396;28;20569;-74
2023/04/02 07:34:13;;;;;;;8.13;6.70;;;8.00;99.90;;;;;;5092994;28;20256;-74
2023/04/02 07:36:40;;;;;;;7.77;6.07;;;7.90;99.90;;;;;;5093158;28;20249;-74
2023/04/02 07:39:08;;;;;;;7.27;6.57;;;8.00;99.90;;;;;;5093252;28;20285;-77
2023/04/02 07:41:50;;;;;;;7.10;6.40;;;8.00;99.90;;;;;;5093119;28;20231;-76
2023/04/02 07:44:17;;;;;;;9.87;8.60;;;8.10;99.90;;;;;;5093152;28;20219;-74
2023/04/02 07:46:43;;;;;;;8.60;6.50;;;8.10;99.90;;;;;;5093109;28;20266;-74
2023/04/02 07:49:10;;;;;;;8.03;7.17;;;8.10;99.90;;;;;;5093016;28;20222;-75
2023/04/02 07:51:37;;;;;;;7.50;6.80;;;8.10;99.90;;;;;;5092704;28;20682;-75
2023/04/02 07:54:04;;;;;;;8.57;7.50;;;8.10;99.90;;;;;;5092805;28;20197;-75
2023/04/02 07:56:32;;;;;;;8.30;7.40;;;8.20;99.90;;;;;;5092905;28;20238;-75
2023/04/02 07:58:58;;;;;;;10.77;9.57;;;8.20;99.90;;;;;;5093067;28;20239;-77
2023/04/02 08:01:28;;;;;;;8.80;7.90;;;8.10;99.90;;;;;;5093018;28;20197;-76
2023/04/02 08:03:56;;;;;;;9.37;8.37;;;8.10;99.90;;;;;;5092898;28;20612;-77
2023/04/02 08:06:23;;;;;;;9.60;8.27;;;8.20;99.90;;;;;;5092704;28;20251;-77
2023/04/02 08:08:50;;;;;;;9.70;8.70;;;8.30;99.90;;;;;;5092700;28;20231;-77
2023/04/02 08:11:16;;;;;;;9.80;8.77;;;8.40;99.90;;;;;;5092740;28;20231;-77
2023/04/02 08:13:44;;;;;;;9.37;8.43;;;8.30;99.90;;;;;;5092843;28;20677;-77
2023/04/02 08:16:11;;;;;;;11.93;9.60;;;8.30;99.90;;;;;;5092819;28;20303;-76
2023/04/02 08:18:38;;;;;;;10.60;8.80;;;8.40;99.90;;;;;;5092671;28;20630;-76
2023/04/02 08:21:07;;;;;;;9.70;8.70;;;8.30;99.90;;;;;;5092364;28;20309;-77
2023/04/02 08:23:34;;;;;;;9.77;8.77;;;8.30;99.90;;;;;;5092148;28;20257;-77
2023/04/02 08:26:01;;;;;;;13.00;11.67;;;8.20;99.90;;;;;;5092318;28;20197;-76
2023/04/02 08:28:28;;;;;;;10.53;9.43;;;8.10;99.90;;;;;;5092543;28;20207;-75
2023/04/02 08:30:55;;;;;;;13.53;11.47;;;8.20;99.90;;;;;;5092400;28;20228;-75
2023/04/02 08:33:22;;;;;;;10.70;9.50;;;8.30;99.90;;;;;;5092313;28;20260;-75
2023/04/02 08:35:50;;;;;;;12.17;10.97;;;8.30;99.90;;;;;;5092353;28;20235;-75
2023/04/02 08:38:19;;;;;;;11.10;10.00;;;8.30;99.90;;;;;;5092228;28;20291;-74
2023/04/02 08:40:48;;;;;;;12.40;11.10;;;8.40;99.90;;;;;;5092554;28;20231;-74
2023/04/02 08:43:27;;;;;;;10.73;9.63;;;8.40;99.90;;;;;;5093925;28;20780;-74
2023/04/02 08:46:06;;;;;;;11.63;10.43;;;8.30;99.90;;;;;;5096016;28;20204;-74
2023/04/02 08:48:35;;;;;;;9.77;8.77;;;8.40;99.90;;;;;;5096262;28;20224;-74
2023/04/02 08:51:02;;;;;;;10.10;9.07;;;8.30;99.90;;;;;;5095910;28;20548;-75
2023/04/02 08:53:33;;;;;;;10.90;8.77;;;8.50;99.90;;;;;;5096124;28;20228;-75
2023/04/02 08:56:08;;;;;;;8.87;7.97;;;8.50;99.90;;;;;;5095934;28;20201;-75
2023/04/02 08:58:41;;;;;;;9.27;8.37;;;8.50;99.90;;;;;;5095701;28;20582;-74
2023/04/02 09:01:19;;;;;;;9.33;8.43;;;8.30;99.90;;;;;;5095760;28;20214;-75
2023/04/02 09:03:47;;;;;;;12.43;11.03;;;8.50;99.90;;;;;;5095829;28;20241;-73
2023/04/02 09:06:18;;;;;;;10.07;9.00;;;8.50;99.90;;;;;;5095879;28;20239;-74
2023/04/02 09:08:47;;;;;;;10.93;9.83;;;8.50;99.90;;;;;;5095534;28;20840;-74
2023/04/02 09:11:23;;;;;;;8.33;7.53;;;8.60;99.90;;;;;;5095503;28;20652;-73
2023/04/02 09:13:54;;;;;;;7.50;6.80;;;8.60;99.90;;;;;;5095762;28;20250;-74
2023/04/02 09:16:32;;;;;;;6.90;5.67;;;8.60;99.90;;;;;;5095566;28;20245;-76
2023/04/02 09:19:00;;;;;;;2.13;1.93;;;8.40;99.90;;;;;;5095323;28;20192;-75
2023/04/02 09:21:34;;;;;;;1.70;1.60;;;8.00;99.90;;;;;;5095238;28;20615;-75
2023/04/02 09:24:01;;;;;;;1.70;1.60;;;7.80;99.90;;;;;;5095335;28;20238;-76
2023/04/02 09:26:30;;;;;;;1.80;1.70;;;7.70;99.90;;;;;;5095445;28;20220;-76
2023/04/02 09:29:02;;;;;;;2.67;2.47;;;7.70;99.90;;;;;;5095293;28;20398;-77
2023/04/02 09:31:36;;;;;;;1.40;1.30;;;7.70;99.90;;;;;;5095575;28;20238;-77
2023/04/02 09:34:28;;;;;;;1.50;1.40;;;8.00;99.90;;;;;;5095064;28;20615;-77
2023/04/02 09:36:55;;;;;;;1.53;1.43;;;7.90;99.90;;;;;;5095233;28;20203;-77
2023/04/02 09:39:24;;;;;;;1.30;1.20;;;8.20;99.90;;;;;;5095067;28;20216;-77
2023/04/02 09:41:51;;;;;;;1.30;1.20;;;8.40;99.90;;;;;;5095022;28;20253;-78
2023/04/02 09:44:23;;;;;;;1.60;1.50;;;8.70;99.90;;;;;;5095156;28;20242;-77
2023/04/02 09:46:58;;;;;;;1.50;1.40;;;8.90;99.90;;;;;;5094769;28;20220;-77
2023/04/02 09:49:28;;;;;;;1.50;1.40;;;9.10;99.90;;;;;;5095114;28;20204;-77
2023/04/02 09:52:28;;;;;;;1.67;1.57;;;9.10;99.90;;;;;;5094990;28;20231;-78
2023/04/02 09:55:23;;;;;;;1.33;1.23;;;9.10;99.90;;;;;;5085689;28;20265;-77
2023/04/02 09:57:50;;;;;;;1.50;1.40;;;8.90;99.90;;;;;;5094629;28;20655;-78
2023/04/02 10:00:21;;;;;;;1.60;1.50;;;8.90;99.90;;;;;;5094417;28;20196;-78
2023/04/02 10:03:01;;;;;;;1.40;1.30;;;8.90;99.90;;;;;;5094681;28;20298;-78
2023/04/02 10:05:31;;;;;;;1.53;1.20;;;9.00;99.90;;;;;;5094624;28;20196;-78
2023/04/02 10:08:08;;;;;;;1.43;1.30;;;9.00;99.90;;;;;;5094393;28;20224;-78
2023/04/02 10:10:39;;;;;;;1.30;1.20;;;9.10;99.90;;;;;;5094436;28;20222;-78
2023/04/02 10:13:09;;;;;;;1.20;1.10;;;9.20;99.90;;;;;;5094679;28;20193;-78
2023/04/02 10:15:42;;;;;;;1.43;1.33;;;9.50;99.90;;;;;;5094331;28;20196;-78
2023/04/02 10:18:16;;;;;;;1.33;1.23;;;9.50;99.90;;;;;;5094404;28;20243;-79
2023/04/02 10:20:45;;;;;;;1.50;1.40;;;9.50;99.90;;;;;;5094579;28;20602;-79
2023/04/02 10:23:16;;;;;;;2.37;2.00;;;9.40;99.90;;;;;;5096674;28;20200;-78
2023/04/02 10:25:51;;;;;;;2.30;1.70;;;9.10;99.90;;;;;;5094192;28;20230;-78
2023/04/02 10:28:29;;;;;;;3.17;1.80;;;8.90;99.90;;;;;;5094123;28;20270;-79
2023/04/02 10:31:01;;;;;;;1.70;1.60;;;9.00;99.90;;;;;;5094714;28;20207;-79
2023/04/02 10:33:34;;;;;;;2.30;2.10;;;9.20;99.90;;;;;;5096790;28;20591;-80
2023/04/02 10:36:08;;;;;;;2.07;1.43;;;9.00;99.90;;;;;;5096757;28;20253;-79
2023/04/02 10:38:49;;;;;;;1.80;1.70;;;9.20;99.90;;;;;;5096666;28;20232;-79
2023/04/02 10:41:29;;;;;;;1.60;1.50;;;9.10;99.90;;;;;;5093980;28;20692;-79
2023/04/02 10:44:22;;;;;;;1.60;1.50;;;9.30;99.90;;;;;;5094349;28;20192;-80
2023/04/02 10:47:01;;;;;;;1.40;1.30;;;9.10;99.90;;;;;;5093739;28;20264;-80
2023/04/02 10:49:35;;;;;;;1.63;1.53;;;8.90;99.90;;;;;;5093804;28;20211;-80
2023/04/02 10:52:07;;;;;;;2.90;1.90;;;9.00;99.90;;;;;;5093878;28;20674;-81
2023/04/02 10:54:40;;;;;;;1.57;1.47;;;9.10;99.90;;;;;;5094114;28;20228;-80
2023/04/02 10:57:14;;;;;;;1.63;1.30;;;8.40;99.90;;;;;;5095624;28;20227;-81
2023/04/02 10:59:44;;;;;;;2.10;1.90;;;8.20;99.90;;;;;;5096485;28;20223;-82
2023/04/02 11:02:38;;;;;;;2.10;1.90;;;8.10;99.90;;;;;;5093897;28;20597;-80
2023/04/02 11:05:17;;;;;;;2.33;1.70;;;8.10;99.90;;;;;;5094052;28;20200;-81
2023/04/02 11:07:55;;;;;;;2.00;1.73;;;8.20;99.90;;;;;;5093049;28;20659;-81
2023/04/02 11:10:22;;;;;;;1.80;1.70;;;8.30;99.90;;;;;;5093634;28;20219;-80
2023/04/02 11:12:55;;;;;;;1.80;1.70;;;8.30;99.90;;;;;;5093668;28;20269;-80
2023/04/02 11:15:22;;;;;;;1.70;1.60;;;8.40;99.90;;;;;;5094096;28;20196;-82
2023/04/02 11:17:49;;;;;;;1.80;1.70;;;8.40;99.90;;;;;;5093394;28;20660;-81
2023/04/02 11:21:04;;;;;;;2.10;1.90;;;8.30;99.90;;;;;;5093829;28;20192;-81
2023/04/02 11:23:56;;;;;;;1.77;1.67;;;8.40;99.90;;;;;;5093697;28;20250;-81
2023/04/02 11:26:36;;;;;;;1.60;1.50;;;8.30;99.90;;;;;;5093887;28;20314;-81
2023/04/02 11:29:12;;;;;;;1.90;1.80;;;8.40;99.90;;;;;;5093591;28;20220;-81
2023/04/02 11:31:39;;;;;;;1.97;1.80;;;8.50;99.90;;;;;;5093224;28;20199;-81
2023/04/02 11:34:05;;;;;;;1.90;1.80;;;8.50;99.90;;;;;;5093204;28;20239;-81
2023/04/02 11:37:01;;;;;;;1.63;1.53;;;8.50;99.90;;;;;;5093078;28;20222;-81
2023/04/02 11:39:56;;;;;;;1.73;1.63;;;8.40;99.90;;;;;;5093103;28;20200;-82
2023/04/02 11:42:31;;;;;;;1.83;1.40;;;8.50;99.90;;;;;;5093663;28;20207;-81
2023/04/02 11:45:01;;;;;;;2.13;1.70;;;8.60;99.90;;;;;;5093273;28;20231;-80
2023/04/02 11:47:29;;;;;;;1.90;1.80;;;8.70;99.90;;;;;;5093095;28;20229;-80
2023/04/02 11:50:03;;;;;;;1.50;1.40;;;8.70;99.90;;;;;;5092700;28;20196;-81
2023/04/02 11:52:49;;;;;;;2.10;1.80;;;8.90;99.90;;;;;;5100550;28;20208;-80
2023/04/02 11:55:35;;;;;;;1.80;1.70;;;9.10;99.90;;;;;;5076792;28;20230;-80
2023/04/02 11:58:24;;;;;;;1.60;1.50;;;8.90;99.90;;;;;;5093371;28;20232;-80
2023/04/02 12:01:01;;;;;;;1.40;1.30;;;8.90;99.90;;;;;;5093207;28;20600;-80
2023/04/02 12:03:48;;;;;;;1.33;1.23;;;8.70;99.90;;;;;;5093034;28;20228;-81
2023/04/02 12:06:26;;;;;;;1.60;1.50;;;8.50;99.90;;;;;;5092870;28;20652;-79
2023/04/02 12:09:04;;;;;;;1.63;1.53;;;8.90;99.90;;;;;;5092813;28;20220;-81
2023/04/02 12:11:35;;;;;;;1.93;1.80;;;8.80;99.90;;;;;;5093765;28;20224;-80
2023/04/02 12:14:06;;;;;;;1.90;1.70;;;8.80;99.90;;;;;;5092862;28;20207;-80
2023/04/02 12:16:34;;;;;;;2.20;2.00;;;8.70;99.90;;;;;;5092650;28;20192;-80
2023/04/02 12:19:02;;;;;;;2.93;1.40;;;8.50;99.90;;;;;;5095394;28;20196;-79
2023/04/02 12:21:30;;;;;;;2.33;2.13;;;8.50;99.90;;;;;;5097026;28;20196;-78
2023/04/02 12:23:58;;;;;;;2.23;2.07;;;8.30;99.90;;;;;;5104862;28;20203;-78
2023/04/02 12:26:36;;;;;;;2.50;2.30;;;8.50;99.90;;;;;;5118159;28;20192;-79
2023/04/02 12:29:23;;;;;;;2.07;1.97;;;8.50;99.90;;;;;;5117280;28;20226;-79
2023/04/02 12:31:50;;;;;;;2.13;1.93;;;8.60;99.90;;;;;;5111317;28;20283;-79
2023/04/02 12:34:19;;;;;;;2.07;1.97;;;8.60;99.90;;;;;;5096410;28;20259;-79
2023/04/02 12:36:53;;;;;;;2.00;1.90;;;8.80;99.90;;;;;;5096244;28;20333;-78
2023/04/02 12:39:20;;;;;;;1.90;1.80;;;8.80;99.90;;;;;;5096187;28;20203;-78
2023/04/02 12:41:48;;;;;;;2.17;2.07;;;8.70;99.90;;;;;;5095943;28;20193;-77
2023/04/02 12:44:16;;;;;;;2.30;2.10;;;8.30;99.90;;;;;;5096301;28;20236;-78
2023/04/02 12:46:44;;;;;;;2.20;2.00;;;8.10;99.90;;;;;;5095988;28;20241;-77
2023/04/02 12:49:24;;;;;;;2.60;2.40;;;8.00;99.90;;;;;;5096206;28;20315;-77
2023/04/02 12:51:51;;;;;;;3.00;1.80;;;7.80;99.90;;;;;;5095577;28;20230;-78
2023/04/02 12:54:19;;;;;;;2.20;2.10;;;7.70;99.90;;;;;;5095986;28;20203;-78
2023/04/02 12:56:48;;;;;;;2.13;2.00;;;7.70;99.90;;;;;;5095961;28;20825;-77
2023/04/02 12:59:30;;;;;;;1.80;1.70;;;7.60;99.90;;;;;;5096120;28;20278;-75
2023/04/02 13:01:58;;;;;;;2.50;2.30;;;7.50;99.90;;;;;;5095855;28;20203;-77
2023/04/02 13:04:25;;;;;;;2.30;2.00;;;7.60;99.90;;;;;;5095897;28;20202;-75
2023/04/02 13:06:54;;;;;;;1.90;1.80;;;7.70;99.90;;;;;;5095730;28;20202;-76
2023/04/02 13:09:30;;;;;;;3.03;2.57;;;7.80;99.90;;;;;;5095510;28;20224;-76
2023/04/02 13:11:59;;;;;;;2.00;1.90;;;8.10;99.90;;;;;;5095740;28;20246;-75
2023/04/02 13:14:26;;;;;;;1.80;1.70;;;8.10;99.90;;;;;;5095386;28;20667;-75
2023/04/02 13:16:52;;;;;;;1.80;1.70;;;7.70;99.90;;;;;;5095431;28;20235;-75
2023/04/02 13:19:24;;;;;;;2.30;2.10;;;7.70;99.90;;;;;;5095318;28;20235;-74
2023/04/02 13:21:52;;;;;;;2.50;2.30;;;7.80;99.90;;;;;;5095680;28;20232;-75